createdAt,value
2023-10-22T00:01:30.579Z,20.50
2023-10-22T00:04:18.075Z,22.05
2023-10-22T00:07:11.981Z,21.55
2023-10-22T00:09:58.621Z,21.77
2023-10-22T00:12:46.675Z,22.48
2023-10-22T00:15:32.172Z,22.27
2023-10-22T00:18:18.312Z,22.45
2023-10-22T00:21:09.395Z,21.52
2023-10-22T00:23:57.572Z,23.20
2023-10-22T00:26:43.842Z,23.90
2023-10-22T00:29:29.451Z,22.52
2023-10-22T00:32:18.996Z,25.20
2023-10-22T00:35:05.658Z,21.92
2023-10-22T00:37:51.409Z,22.83
2023-10-22T00:40:37.045Z,21.40
2023-10-22T00:43:22.591Z,21.63
2023-10-22T00:46:08.378Z,20.33
2023-10-22T00:48:56.703Z,20.58
2023-10-22T00:51:49.646Z,20.83
2023-10-22T00:54:39.212Z,21.63
2023-10-22T00:57:25.803Z,19.25
2023-10-22T01:00:12.152Z,19.63
2023-10-22T01:03:09.626Z,21.23
2023-10-22T01:05:56.030Z,19.67
2023-10-22T01:08:42.887Z,21.30
2023-10-22T01:11:28.870Z,21.27
2023-10-22T01:14:14.600Z,21.95
2023-10-22T01:17:00.261Z,21.40
2023-10-22T01:19:45.866Z,20.83
2023-10-22T01:22:34.963Z,18.52
2023-10-22T01:25:20.569Z,20.30
2023-10-22T01:28:09.779Z,20.05
2023-10-22T01:30:58.570Z,19.40
2023-10-22T01:33:44.986Z,19.17
2023-10-22T01:36:31.003Z,19.80
2023-10-22T01:39:24.194Z,19.73
2023-10-22T01:42:15.393Z,18.85
2023-10-22T01:45:03.321Z,19.95
2023-10-22T01:47:49.807Z,18.92
2023-10-22T01:50:35.907Z,18.42
2023-10-22T01:53:21.919Z,18.25
2023-10-22T01:56:07.859Z,17.90
2023-10-22T01:58:54.009Z,19.58
2023-10-22T02:01:40.486Z,19.02
2023-10-22T02:04:26.356Z,19.05
2023-10-22T02:07:17.158Z,18.25
2023-10-22T02:10:02.658Z,17.90
2023-10-22T02:12:48.425Z,17.55
2023-10-22T02:15:39.962Z,18.42
2023-10-22T02:18:25.814Z,18.13
2023-10-22T02:21:11.893Z,18.63
2023-10-22T02:23:58.554Z,16.90
2023-10-22T02:26:44.133Z,17.90
2023-10-22T02:29:29.637Z,17.55
2023-10-22T02:32:15.471Z,17.83
2023-10-22T02:35:01.256Z,17.55
2023-10-22T02:37:48.512Z,17.95
2023-10-22T02:40:37.531Z,17.70
2023-10-22T02:43:23.319Z,17.45
2023-10-22T02:46:09.057Z,18.63
2023-10-22T02:49:01.740Z,19.05
2023-10-22T02:51:49.475Z,17.73
2023-10-22T02:54:35.235Z,18.52
2023-10-22T02:57:26.881Z,19.98
2023-10-22T03:00:29.107Z,19.15
2023-10-22T03:03:21.583Z,18.73
2023-10-22T03:06:13.171Z,17.83
2023-10-22T03:08:59.698Z,18.85
2023-10-22T03:11:45.394Z,17.80
2023-10-22T03:14:30.885Z,17.70
2023-10-22T03:17:18.165Z,19.02
2023-10-22T03:20:04.875Z,18.25
2023-10-22T03:22:51.737Z,17.92
2023-10-22T03:25:40.378Z,17.60
2023-10-22T03:28:28.170Z,17.83
2023-10-22T03:31:17.486Z,19.52
2023-10-22T03:34:03.988Z,19.15
2023-10-22T03:36:52.288Z,19.10
2023-10-22T03:39:38.736Z,18.45
2023-10-22T03:42:24.414Z,18.63
2023-10-22T03:45:11.127Z,19.45
2023-10-22T03:47:57.388Z,18.42
2023-10-22T03:50:46.120Z,18.75
2023-10-22T03:53:32.777Z,19.13
2023-10-22T03:56:20.915Z,18.20
2023-10-22T03:59:06.582Z,18.75
2023-10-22T04:01:57.141Z,19.67
2023-10-22T04:04:43.742Z,17.95
2023-10-22T04:07:31.847Z,17.10
2023-10-22T04:10:17.897Z,16.90
2023-10-22T04:13:06.310Z,16.58
2023-10-22T04:15:53.232Z,15.45
2023-10-22T04:18:39.104Z,16.35
2023-10-22T04:21:25.122Z,16.00
2023-10-22T04:24:10.744Z,15.73
2023-10-22T04:26:58.682Z,14.98
2023-10-22T04:29:47.530Z,15.25
2023-10-22T04:32:37.912Z,14.80
2023-10-22T04:35:23.845Z,14.77
2023-10-22T04:38:09.500Z,14.73
2023-10-22T04:40:55.680Z,14.35
2023-10-22T04:43:43.701Z,15.43
2023-10-22T04:46:29.629Z,15.35
2023-10-22T04:49:15.835Z,14.27
2023-10-22T04:52:01.387Z,14.60
2023-10-22T04:54:49.052Z,14.10
2023-10-22T04:57:34.602Z,14.38
2023-10-22T05:00:20.336Z,13.38
2023-10-22T05:03:06.252Z,13.70
2023-10-22T05:05:52.684Z,12.98
2023-10-22T05:08:39.845Z,12.80
2023-10-22T05:11:27.838Z,14.05
2023-10-22T05:14:18.655Z,15.45
2023-10-22T05:17:06.242Z,15.82
2023-10-22T05:19:52.073Z,14.45
2023-10-22T05:22:37.694Z,17.48
2023-10-22T05:25:23.473Z,16.90
2023-10-22T05:28:12.045Z,18.00
2023-10-22T05:30:57.728Z,17.15
2023-10-22T05:33:44.155Z,15.20
2023-10-22T05:36:30.064Z,14.35
2023-10-22T05:39:15.725Z,14.18
2023-10-22T05:42:01.183Z,14.75
2023-10-22T05:44:47.348Z,15.43
2023-10-22T05:47:33.745Z,15.68
2023-10-22T05:50:19.738Z,16.48
2023-10-22T05:53:09.065Z,15.50
2023-10-22T05:56:00.848Z,15.40
2023-10-22T05:58:46.471Z,18.23
2023-10-22T06:01:32.154Z,18.77
2023-10-22T06:04:18.174Z,17.02
2023-10-22T06:07:05.399Z,15.90
2023-10-22T06:09:50.848Z,15.10
2023-10-22T06:12:36.568Z,15.25
2023-10-22T06:15:22.731Z,14.98
2023-10-22T06:18:09.065Z,15.55
2023-10-22T06:20:55.203Z,16.55
2023-10-22T06:23:41.596Z,21.45
2023-10-22T06:26:27.601Z,22.23
2023-10-22T06:29:13.397Z,24.00
2023-10-22T06:31:59.150Z,29.65
2023-10-22T06:34:45.053Z,27.88
2023-10-22T06:37:30.655Z,28.27
2023-10-22T06:40:16.296Z,24.25
2023-10-22T06:43:02.198Z,21.23
2023-10-22T06:45:47.787Z,18.42
2023-10-22T06:48:33.451Z,16.33
2023-10-22T06:51:19.538Z,15.68
2023-10-22T06:54:07.058Z,14.43
2023-10-22T06:56:53.142Z,14.40
2023-10-22T06:59:38.648Z,14.68
2023-10-22T07:02:27.970Z,15.75
2023-10-22T07:05:16.669Z,16.80
2023-10-22T07:08:02.578Z,17.38
2023-10-22T07:10:50.509Z,18.60
2023-10-22T07:13:36.153Z,17.92
2023-10-22T07:16:21.760Z,17.25
2023-10-22T07:19:07.161Z,17.27
2023-10-22T07:21:52.963Z,17.52
2023-10-22T07:24:39.260Z,15.93
2023-10-22T07:27:25.168Z,15.82
2023-10-22T07:30:12.652Z,16.05
2023-10-22T07:32:59.173Z,16.17
2023-10-22T07:36:01.930Z,17.42
2023-10-22T07:38:52.837Z,15.65
2023-10-22T07:41:39.327Z,15.35
2023-10-22T07:44:27.681Z,17.15
2023-10-22T07:47:13.321Z,17.33
2023-10-22T07:49:59.418Z,15.70
2023-10-22T07:52:46.111Z,16.05
2023-10-22T07:55:31.794Z,16.35
2023-10-22T07:58:17.742Z,15.98
2023-10-22T08:01:07.836Z,15.68
2023-10-22T08:03:53.756Z,15.35
2023-10-22T08:06:40.028Z,15.32
2023-10-22T08:09:25.929Z,15.25
2023-10-22T08:12:12.083Z,14.85
2023-10-22T08:14:58.299Z,15.77
2023-10-22T08:17:46.865Z,15.30
2023-10-22T08:20:34.632Z,14.88
2023-10-22T08:23:20.769Z,15.68
2023-10-22T08:26:07.242Z,15.00
2023-10-22T08:28:52.963Z,14.80
2023-10-22T08:31:38.679Z,15.68
2023-10-22T08:34:27.166Z,13.90
2023-10-22T08:37:13.593Z,14.60
2023-10-22T08:40:01.971Z,15.27
2023-10-22T08:42:52.815Z,14.57
2023-10-22T08:45:38.935Z,15.10
2023-10-22T08:48:29.400Z,14.25
2023-10-22T08:51:15.475Z,14.30
2023-10-22T08:54:03.178Z,14.60
2023-10-22T08:56:49.483Z,14.40
2023-10-22T08:59:39.240Z,14.40
2023-10-22T09:02:28.486Z,14.38
2023-10-22T09:05:14.579Z,15.45
2023-10-22T09:08:01.075Z,14.93
2023-10-22T09:10:47.263Z,15.63
2023-10-22T09:13:35.614Z,16.50
2023-10-22T09:16:35.584Z,15.52
2023-10-22T09:19:40.737Z,16.27
2023-10-22T09:22:28.317Z,14.85
2023-10-22T09:25:14.517Z,14.13
2023-10-22T09:28:14.737Z,15.00
2023-10-22T09:31:03.416Z,13.60
2023-10-22T09:33:49.462Z,13.20
2023-10-22T09:36:56.409Z,14.05
2023-10-22T09:39:44.899Z,13.00
2023-10-22T09:42:34.912Z,12.70
2023-10-22T09:45:25.430Z,12.52
2023-10-22T09:48:17.032Z,13.32
2023-10-22T09:51:07.461Z,13.93
2023-10-22T09:53:57.785Z,13.00
2023-10-22T09:56:53.357Z,12.85
2023-10-22T09:59:42.063Z,12.10
2023-10-22T10:02:28.677Z,12.77
2023-10-22T10:05:16.102Z,14.65
2023-10-22T10:08:02.616Z,13.60
2023-10-22T10:10:52.487Z,13.93
2023-10-22T10:13:38.597Z,14.65
2023-10-22T10:16:29.791Z,14.30
2023-10-22T10:19:23.037Z,14.25
2023-10-22T10:22:10.311Z,15.88
2023-10-22T10:25:33.835Z,14.43
2023-10-22T10:28:46.588Z,14.15
2023-10-22T10:31:32.693Z,14.52
2023-10-22T10:34:42.239Z,14.98
2023-10-22T10:37:29.981Z,13.30
2023-10-22T10:40:57.102Z,14.30
2023-10-22T10:44:09.642Z,14.45
2023-10-22T10:46:55.383Z,13.15
2023-10-22T10:50:09.308Z,13.57
2023-10-22T10:53:00.187Z,14.30
2023-10-22T10:55:51.220Z,13.95
2023-10-22T10:58:47.414Z,14.48
2023-10-22T11:01:33.215Z,13.45
2023-10-22T11:04:19.263Z,13.70
2023-10-22T11:07:22.228Z,14.90
2023-10-22T11:10:17.935Z,14.40
2023-10-22T11:13:07.062Z,13.82
2023-10-22T11:15:55.020Z,14.70
2023-10-22T11:18:59.537Z,13.45
2023-10-22T11:21:45.644Z,15.15
2023-10-22T11:24:37.226Z,13.85
2023-10-22T11:27:25.982Z,13.40
2023-10-22T11:30:12.227Z,12.73
2023-10-22T11:32:58.526Z,13.05
2023-10-22T11:35:44.673Z,12.48
2023-10-22T11:38:30.320Z,12.57
2023-10-22T11:41:16.964Z,12.93
2023-10-22T11:44:02.888Z,12.48
2023-10-22T11:46:48.860Z,11.73
2023-10-22T11:49:47.175Z,13.00
2023-10-22T11:52:36.367Z,13.77
2023-10-22T11:55:36.218Z,12.90
2023-10-22T11:58:29.224Z,13.48
2023-10-22T12:01:16.019Z,13.15
2023-10-22T12:04:05.037Z,12.82
2023-10-22T12:06:51.143Z,13.02
2023-10-22T12:09:42.921Z,12.65
2023-10-22T12:12:28.795Z,14.70
2023-10-22T12:15:15.384Z,14.75
2023-10-22T12:18:01.842Z,14.85
2023-10-22T12:20:48.135Z,15.68
2023-10-22T12:23:45.994Z,14.77
2023-10-22T12:26:38.029Z,15.80
2023-10-22T12:29:24.039Z,15.30
2023-10-22T12:32:10.388Z,14.63
2023-10-22T12:34:56.651Z,13.32
2023-10-22T12:37:42.463Z,13.15
2023-10-22T12:40:28.412Z,12.63
2023-10-22T12:43:14.211Z,12.65
2023-10-22T12:46:05.538Z,11.32
2023-10-22T12:48:53.236Z,10.95
2023-10-22T12:51:42.593Z,12.98
2023-10-22T12:54:28.503Z,11.75
2023-10-22T12:57:17.327Z,12.88
2023-10-22T13:00:12.250Z,12.68
2023-10-22T13:02:58.197Z,13.13
2023-10-22T13:05:44.736Z,12.40
2023-10-22T13:08:32.988Z,11.40
2023-10-22T13:11:22.322Z,11.35
2023-10-22T13:14:10.949Z,12.10
2023-10-22T13:16:57.110Z,11.35
2023-10-22T13:19:42.495Z,11.40
2023-10-22T13:22:28.197Z,10.95
2023-10-22T13:25:13.857Z,12.73
2023-10-22T13:27:59.791Z,11.93
2023-10-22T13:30:45.399Z,12.00
2023-10-22T13:33:31.187Z,13.35
2023-10-22T13:36:17.010Z,12.57
2023-10-22T13:39:03.552Z,12.18
2023-10-22T13:41:49.168Z,12.50
2023-10-22T13:44:34.801Z,12.07
2023-10-22T13:47:22.731Z,13.65
2023-10-22T13:50:12.185Z,14.80
2023-10-22T13:52:58.289Z,14.38
2023-10-22T13:55:44.446Z,13.05
2023-10-22T13:58:30.948Z,12.82
2023-10-22T14:01:16.591Z,12.90
2023-10-22T14:04:02.200Z,12.73
2023-10-22T14:06:48.267Z,12.20
2023-10-22T14:09:34.236Z,12.27
2023-10-22T14:12:20.503Z,12.48
2023-10-22T14:15:08.959Z,13.23
2023-10-22T14:17:58.480Z,12.32
2023-10-22T14:20:44.422Z,12.65
2023-10-22T14:23:30.326Z,11.65
2023-10-22T14:26:16.109Z,11.10
2023-10-22T14:29:01.961Z,9.57
2023-10-22T14:31:47.422Z,9.05
2023-10-22T14:34:33.667Z,8.85
2023-10-22T14:37:19.095Z,8.75
2023-10-22T14:40:07.169Z,8.15
2023-10-22T14:42:52.958Z,9.55
2023-10-22T14:45:38.640Z,9.98
2023-10-22T14:48:24.847Z,10.65
2023-10-22T14:51:10.768Z,10.13
2023-10-22T14:53:56.784Z,10.60
2023-10-22T14:56:42.530Z,10.98
2023-10-22T14:59:28.436Z,11.30
2023-10-22T15:02:14.361Z,11.63
2023-10-22T15:05:02.098Z,11.40
2023-10-22T15:07:48.512Z,12.48
2023-10-22T15:10:44.016Z,11.55
2023-10-22T15:13:30.114Z,12.32
2023-10-22T15:16:18.656Z,13.02
2023-10-22T15:19:05.078Z,13.70
2023-10-22T15:21:50.544Z,13.13
2023-10-22T15:24:36.385Z,13.38
2023-10-22T15:27:22.115Z,13.23
2023-10-22T15:30:09.538Z,14.63
2023-10-22T15:32:59.796Z,14.65
2023-10-22T15:35:45.811Z,15.93
2023-10-22T15:38:31.526Z,15.48
2023-10-22T15:41:17.303Z,15.13
2023-10-22T15:44:02.912Z,15.20
2023-10-22T15:46:51.313Z,16.02
2023-10-22T15:49:37.535Z,16.33
2023-10-22T15:52:23.309Z,16.42
2023-10-22T15:55:09.214Z,15.48
2023-10-22T15:57:56.082Z,15.55
2023-10-22T16:00:43.958Z,14.93
2023-10-22T16:03:29.829Z,15.75
2023-10-22T16:06:16.415Z,16.42
2023-10-22T16:09:02.236Z,16.15
2023-10-22T16:11:49.397Z,15.93
2023-10-22T16:14:36.415Z,15.98
2023-10-22T16:17:24.959Z,15.45
2023-10-22T16:20:15.252Z,15.30
2023-10-22T16:23:01.286Z,16.38
2023-10-22T16:25:49.536Z,16.42
2023-10-22T16:28:35.292Z,16.25
2023-10-22T16:31:20.766Z,15.27
2023-10-22T16:34:08.976Z,14.23
2023-10-22T16:36:54.448Z,12.05
2023-10-22T16:39:41.412Z,9.27
2023-10-22T16:42:27.434Z,8.38
2023-10-22T16:45:16.005Z,8.02
2023-10-22T16:48:03.672Z,8.38
2023-10-22T16:50:49.705Z,9.13
2023-10-22T16:53:37.644Z,9.25
2023-10-22T16:56:23.222Z,8.75
2023-10-22T16:59:08.872Z,8.45
2023-10-22T17:01:55.413Z,8.45
2023-10-22T17:04:40.935Z,9.65
2023-10-22T17:07:30.140Z,9.57
2023-10-22T17:10:17.410Z,9.95
2023-10-22T17:13:03.190Z,9.27
2023-10-22T17:15:49.445Z,10.20
2023-10-22T17:18:52.109Z,9.43
2023-10-22T17:21:42.010Z,9.80
2023-10-22T17:24:28.097Z,9.13
2023-10-22T17:27:14.289Z,8.35
2023-10-22T17:29:59.917Z,8.48
2023-10-22T17:32:48.662Z,8.63
2023-10-22T17:35:39.961Z,8.95
2023-10-22T17:38:26.159Z,10.90
2023-10-22T17:41:14.210Z,9.13
2023-10-22T17:44:00.087Z,7.82
2023-10-22T17:46:53.544Z,7.95
2023-10-22T17:49:45.586Z,7.03
2023-10-22T17:52:34.505Z,7.70
2023-10-22T17:55:23.762Z,7.40
2023-10-22T17:58:09.731Z,7.63
2023-10-22T18:01:00.038Z,6.30
2023-10-22T18:03:50.059Z,6.72
2023-10-22T18:06:36.270Z,6.15
2023-10-22T18:09:23.569Z,6.45
2023-10-22T18:12:10.406Z,6.22
2023-10-22T18:14:56.368Z,6.85
2023-10-22T18:17:41.946Z,7.88
2023-10-22T18:20:33.559Z,7.22
2023-10-22T18:23:22.311Z,6.40
2023-10-22T18:26:09.881Z,5.82
2023-10-22T18:28:56.641Z,6.25
2023-10-22T18:31:42.623Z,5.60
2023-10-22T18:34:29.064Z,5.22
2023-10-22T18:37:14.970Z,5.30
2023-10-22T18:40:05.387Z,5.38
2023-10-22T18:42:51.458Z,4.75
2023-10-22T18:45:42.468Z,5.38
2023-10-22T18:48:28.237Z,5.35
2023-10-22T18:51:16.578Z,5.07
2023-10-22T18:54:05.401Z,5.43
2023-10-22T18:56:51.376Z,5.20
2023-10-22T18:59:37.758Z,5.28
2023-10-22T19:02:23.771Z,6.70
2023-10-22T19:05:09.981Z,6.65
2023-10-22T19:07:56.061Z,7.85
2023-10-22T19:10:42.174Z,7.70
2023-10-22T19:13:29.529Z,7.43
2023-10-22T19:16:19.637Z,8.73
2023-10-22T19:19:05.564Z,7.38
2023-10-22T19:21:53.193Z,7.97
2023-10-22T19:24:39.259Z,8.32
2023-10-22T19:27:25.671Z,8.63
2023-10-22T19:30:13.678Z,7.95
2023-10-22T19:32:59.907Z,8.15
2023-10-22T19:35:46.233Z,8.25
2023-10-22T19:38:32.894Z,8.63
2023-10-22T19:41:22.547Z,8.60
2023-10-22T19:44:08.119Z,9.25
2023-10-22T19:46:53.829Z,9.18
2023-10-22T19:49:39.597Z,9.02
2023-10-22T19:52:41.123Z,9.85
2023-10-22T19:55:27.798Z,10.77
2023-10-22T19:58:13.337Z,11.35
2023-10-22T20:00:59.595Z,11.88
2023-10-22T20:03:45.971Z,12.05
2023-10-22T20:06:31.858Z,11.23
2023-10-22T20:09:18.139Z,10.93
2023-10-22T20:12:06.847Z,10.93
2023-10-22T20:14:52.938Z,10.63
2023-10-22T20:17:39.128Z,10.20
2023-10-22T20:20:25.199Z,9.90
2023-10-22T20:23:13.589Z,10.10
2023-10-22T20:25:59.467Z,9.90
2023-10-22T20:28:46.719Z,9.98
2023-10-22T20:31:32.575Z,10.10
2023-10-22T20:34:18.741Z,9.35
2023-10-22T20:37:04.932Z,8.80
2023-10-22T20:39:54.153Z,9.25
2023-10-22T20:42:40.260Z,9.88
2023-10-22T20:45:26.803Z,9.38
2023-10-22T20:48:13.880Z,9.50
2023-10-22T20:51:10.417Z,9.50
2023-10-22T20:53:56.392Z,9.30
2023-10-22T20:56:42.901Z,9.13
2023-10-22T20:59:28.742Z,8.65
2023-10-22T21:02:18.354Z,8.05
2023-10-22T21:05:04.780Z,8.55
2023-10-22T21:07:50.698Z,7.20
2023-10-22T21:10:36.428Z,6.50
2023-10-22T21:13:24.642Z,7.18
2023-10-22T21:16:14.155Z,6.47
2023-10-22T21:19:00.744Z,6.07
2023-10-22T21:21:52.210Z,6.72
2023-10-22T21:24:38.593Z,6.80
2023-10-22T21:27:25.354Z,6.82
2023-10-22T21:30:11.895Z,6.32
2023-10-22T21:32:57.888Z,6.88
2023-10-22T21:35:44.406Z,8.20
2023-10-22T21:38:31.003Z,9.20
2023-10-22T21:41:17.524Z,9.48
2023-10-22T21:44:06.272Z,9.73
2023-10-22T21:46:52.376Z,10.27
2023-10-22T21:49:37.994Z,10.15
2023-10-22T21:52:24.645Z,11.38
2023-10-22T21:55:10.613Z,12.10
2023-10-22T21:57:59.463Z,12.25
2023-10-22T22:00:47.735Z,12.63
2023-10-22T22:03:34.066Z,11.63
2023-10-22T22:06:24.610Z,12.63
2023-10-22T22:09:10.368Z,12.13
2023-10-22T22:11:56.676Z,12.05
2023-10-22T22:14:42.451Z,12.43
2023-10-22T22:17:28.064Z,12.38
2023-10-22T22:20:14.259Z,12.27
2023-10-22T22:22:59.749Z,12.38
2023-10-22T22:25:46.332Z,13.55
2023-10-22T22:28:32.673Z,12.57
2023-10-22T22:31:18.501Z,12.93
2023-10-22T22:34:09.409Z,14.13
2023-10-22T22:36:55.315Z,14.57
2023-10-22T22:39:41.329Z,15.57
2023-10-22T22:42:27.006Z,14.35
2023-10-22T22:45:12.553Z,13.60
2023-10-22T22:47:58.064Z,13.10
2023-10-22T22:50:44.756Z,14.07
2023-10-22T22:53:33.088Z,12.98
2023-10-22T22:56:19.279Z,12.68
2023-10-22T22:59:05.197Z,12.23
2023-10-22T23:01:50.953Z,12.23
2023-10-22T23:04:36.687Z,13.98
2023-10-22T23:07:27.498Z,14.23
2023-10-22T23:10:13.334Z,14.30
2023-10-22T23:12:58.815Z,13.50
2023-10-22T23:15:44.873Z,15.27
2023-10-22T23:18:32.340Z,14.50
2023-10-22T23:21:18.390Z,16.30
2023-10-22T23:24:07.420Z,16.40
2023-10-22T23:26:53.070Z,17.17
2023-10-22T23:29:38.695Z,18.95
2023-10-22T23:32:24.563Z,17.02
2023-10-22T23:35:10.834Z,17.40
2023-10-22T23:37:59.513Z,16.88
2023-10-22T23:40:44.967Z,17.70
2023-10-22T23:43:30.765Z,18.20
2023-10-22T23:46:16.791Z,17.63
2023-10-22T23:49:10.083Z,18.38
2023-10-22T23:51:55.723Z,17.65
2023-10-22T23:54:41.935Z,16.40
2023-10-22T23:57:27.651Z,16.02
